Rotterdam Airport

EHRD | RTM

Rotterdam , South-Holland , Netherlands

Thursday, October 24th, 2019 | 06:55

Weather

EHRD 240425Z AUTO 18004KT 3800 BR NSC 13/12 Q1005 TEMPO 2000

Charts

No Charts Available

Gates

53 Available

Runways

1 Available

Events

No events for this airport


New event